createdAt,value
2023-02-19T00:02:35.683Z,59.73
2023-02-19T00:05:38.361Z,59.76
2023-02-19T00:08:40.721Z,59.69
2023-02-19T00:11:44.053Z,59.61
2023-02-19T00:14:46.415Z,59.64
2023-02-19T00:17:49.065Z,60.10
2023-02-19T00:20:51.396Z,60.27
2023-02-19T00:23:57.628Z,60.05
2023-02-19T00:26:59.945Z,60.03
2023-02-19T00:30:02.688Z,60.02
2023-02-19T00:33:05.127Z,59.74
2023-02-19T00:36:08.073Z,59.68
2023-02-19T00:39:15.690Z,59.87
2023-02-19T00:42:19.801Z,59.63
2023-02-19T00:45:22.207Z,59.33
2023-02-19T00:48:24.925Z,59.47
2023-02-19T00:51:32.845Z,59.52
2023-02-19T00:54:35.509Z,59.77
2023-02-19T00:57:38.924Z,59.73
2023-02-19T01:00:41.590Z,59.66
2023-02-19T01:03:43.929Z,59.52
2023-02-19T01:06:48.685Z,59.66
2023-02-19T01:09:51.163Z,59.58
2023-02-19T01:12:53.885Z,59.87
2023-02-19T01:16:17.045Z,59.94
2023-02-19T01:19:19.684Z,60.09
2023-02-19T01:22:22.112Z,60.06
2023-02-19T01:25:24.738Z,60.10
2023-02-19T01:28:27.215Z,59.98
2023-02-19T01:31:31.068Z,60.11
2023-02-19T01:34:34.202Z,59.90
2023-02-19T01:37:37.432Z,59.97
2023-02-19T01:40:39.749Z,59.94
2023-02-19T01:44:01.346Z,59.66
2023-02-19T01:47:03.712Z,59.78
2023-02-19T01:50:06.729Z,59.96
2023-02-19T01:53:12.105Z,60.31
2023-02-19T01:56:18.603Z,60.54
2023-02-19T01:59:21.702Z,60.82
2023-02-19T02:02:28.519Z,60.96
2023-02-19T02:05:45.614Z,61.07
2023-02-19T02:09:10.492Z,61.29
2023-02-19T02:12:13.369Z,61.08
2023-02-19T02:15:16.924Z,61.38
2023-02-19T02:18:47.397Z,61.54
2023-02-19T02:22:16.641Z,61.80
2023-02-19T02:25:21.873Z,61.97
2023-02-19T02:28:52.693Z,62.11
2023-02-19T02:32:17.375Z,62.25
2023-02-19T02:35:27.343Z,62.31
2023-02-19T02:38:32.922Z,62.50
2023-02-19T02:41:35.429Z,62.42
2023-02-19T02:44:39.809Z,62.18
2023-02-19T02:47:55.257Z,62.22
2023-02-19T02:51:10.274Z,62.03
2023-02-19T02:54:44.621Z,61.82
2023-02-19T02:57:47.701Z,62.19
2023-02-19T03:01:15.240Z,62.49
2023-02-19T03:04:36.138Z,62.79
2023-02-19T03:07:47.011Z,62.99
2023-02-19T03:11:22.402Z,63.36
2023-02-19T03:14:54.666Z,63.18
2023-02-19T03:18:22.696Z,63.00
2023-02-19T03:21:28.447Z,63.19
2023-02-19T03:24:54.016Z,63.16
2023-02-19T03:28:01.548Z,63.12
2023-02-19T03:31:04.478Z,63.28
2023-02-19T03:34:12.305Z,63.40
2023-02-19T03:37:38.796Z,63.44
2023-02-19T03:41:14.398Z,63.16
2023-02-19T03:44:25.495Z,63.20
2023-02-19T03:47:33.993Z,63.30
2023-02-19T03:50:50.228Z,63.85
2023-02-19T03:54:22.704Z,63.57
2023-02-19T03:57:52.131Z,63.36
2023-02-19T04:01:05.717Z,63.64
2023-02-19T04:04:13.252Z,63.78
2023-02-19T04:07:15.762Z,63.75
2023-02-19T04:10:20.705Z,63.30
2023-02-19T04:13:38.809Z,63.20
2023-02-19T04:16:47.531Z,63.39
2023-02-19T04:19:51.923Z,63.28
2023-02-19T04:22:55.522Z,63.50
2023-02-19T04:26:00.260Z,63.46
2023-02-19T04:29:03.112Z,63.57
2023-02-19T04:32:05.654Z,63.64
2023-02-19T04:35:08.831Z,63.18
2023-02-19T04:38:12.273Z,63.36
2023-02-19T04:41:14.872Z,63.33
2023-02-19T04:44:17.231Z,63.48
2023-02-19T04:47:19.862Z,63.59
2023-02-19T04:50:23.217Z,63.83
2023-02-19T04:53:25.855Z,64.12
2023-02-19T04:56:28.236Z,63.69
2023-02-19T04:59:30.950Z,63.33
2023-02-19T05:02:33.272Z,63.35
2023-02-19T05:05:35.957Z,63.37
2023-02-19T05:08:38.926Z,63.38
2023-02-19T05:11:41.628Z,63.50
2023-02-19T05:14:43.971Z,63.56
2023-02-19T05:17:46.575Z,63.79
2023-02-19T05:20:50.492Z,63.85
2023-02-19T05:23:53.149Z,64.10
2023-02-19T05:26:55.609Z,65.01
2023-02-19T05:29:58.218Z,65.28
2023-02-19T05:33:00.536Z,65.33
2023-02-19T05:36:07.187Z,65.61
2023-02-19T05:39:11.511Z,66.07
2023-02-19T05:42:15.498Z,66.14
2023-02-19T05:45:17.817Z,66.36
2023-02-19T05:48:20.469Z,66.89
2023-02-19T05:51:24.885Z,67.30
2023-02-19T05:54:31.489Z,67.87
2023-02-19T05:57:33.802Z,68.18
2023-02-19T06:00:36.481Z,68.67
2023-02-19T06:03:39.112Z,69.47
2023-02-19T06:06:42.413Z,69.98
2023-02-19T06:09:45.154Z,70.42
2023-02-19T06:12:47.461Z,71.47
2023-02-19T06:15:50.075Z,71.95
2023-02-19T06:18:52.639Z,72.52
2023-02-19T06:21:55.330Z,73.08
2023-02-19T06:24:58.204Z,73.42
2023-02-19T06:28:00.945Z,73.54
2023-02-19T06:31:04.363Z,73.96
2023-02-19T06:34:07.025Z,74.25
2023-02-19T06:37:09.402Z,74.33
2023-02-19T06:40:12.049Z,74.36
2023-02-19T06:43:14.399Z,74.02
2023-02-19T06:46:17.242Z,74.37
2023-02-19T06:49:19.617Z,74.46
2023-02-19T06:52:22.259Z,74.76
2023-02-19T06:55:24.662Z,74.82
2023-02-19T06:58:27.928Z,74.83
2023-02-19T07:01:32.167Z,74.64
2023-02-19T07:04:34.973Z,74.74
2023-02-19T07:07:37.350Z,74.48
2023-02-19T07:10:40.019Z,74.29
2023-02-19T07:13:42.448Z,74.05
2023-02-19T07:16:47.378Z,73.74
2023-02-19T07:19:49.859Z,73.33
2023-02-19T07:22:52.566Z,73.21
2023-02-19T07:25:54.912Z,73.14
2023-02-19T07:28:57.572Z,73.03
2023-02-19T07:32:00.053Z,73.02
2023-02-19T07:35:02.702Z,73.18
2023-02-19T07:38:05.059Z,73.41
2023-02-19T07:41:08.038Z,73.36
2023-02-19T07:44:13.527Z,73.46
2023-02-19T07:47:16.123Z,73.98
2023-02-19T07:50:18.587Z,73.43
2023-02-19T07:53:22.427Z,73.61
2023-02-19T07:56:24.893Z,73.75
2023-02-19T07:59:27.588Z,74.96
2023-02-19T08:02:48.790Z,75.38
2023-02-19T08:05:53.817Z,75.21
2023-02-19T08:08:57.537Z,74.87
2023-02-19T08:12:18.899Z,75.61
2023-02-19T08:15:22.500Z,75.77
2023-02-19T08:18:27.331Z,75.81
2023-02-19T08:21:29.655Z,76.29
2023-02-19T08:24:33.941Z,76.78
2023-02-19T08:27:36.423Z,76.99
2023-02-19T08:30:41.107Z,77.47
2023-02-19T08:33:43.557Z,78.16
2023-02-19T08:36:46.191Z,78.74
2023-02-19T08:39:48.561Z,79.70
2023-02-19T08:42:51.925Z,80.46
2023-02-19T08:45:55.312Z,81.37
2023-02-19T08:48:58.312Z,82.08
2023-02-19T08:52:00.764Z,82.31
2023-02-19T08:55:05.335Z,82.88
2023-02-19T08:58:07.892Z,83.55
2023-02-19T09:01:13.415Z,84.15
2023-02-19T09:04:16.052Z,84.80
2023-02-19T09:07:20.357Z,85.59
2023-02-19T09:10:22.772Z,85.46
2023-02-19T09:13:25.421Z,85.39
2023-02-19T09:16:27.864Z,85.63
2023-02-19T09:19:31.089Z,85.32
2023-02-19T09:22:33.518Z,85.66
2023-02-19T09:25:36.193Z,85.90
2023-02-19T09:28:41.734Z,85.43
2023-02-19T09:31:45.913Z,85.02
2023-02-19T09:34:50.000Z,83.86
2023-02-19T09:37:52.726Z,83.61
2023-02-19T09:40:57.625Z,83.39
2023-02-19T09:44:02.789Z,82.59
2023-02-19T09:47:15.458Z,82.24
2023-02-19T09:50:22.950Z,81.20
2023-02-19T09:53:40.280Z,80.20
2023-02-19T09:56:43.200Z,78.04
2023-02-19T09:59:50.289Z,77.74
2023-02-19T10:02:57.285Z,77.53
2023-02-19T10:06:04.849Z,77.08
2023-02-19T10:09:20.224Z,76.97
2023-02-19T10:12:31.346Z,75.65
2023-02-19T10:15:47.989Z,74.11
2023-02-19T10:18:50.932Z,72.94
2023-02-19T10:21:53.351Z,72.09
2023-02-19T10:24:56.608Z,71.09
2023-02-19T10:28:00.314Z,70.83
2023-02-19T10:31:07.551Z,69.98
2023-02-19T10:34:19.569Z,70.44
2023-02-19T10:37:22.411Z,70.03
2023-02-19T10:40:27.780Z,69.66
2023-02-19T10:43:34.006Z,70.16
2023-02-19T10:46:43.588Z,70.24
2023-02-19T10:49:48.889Z,69.99
2023-02-19T10:52:55.741Z,70.04
2023-02-19T10:56:22.457Z,69.49
2023-02-19T10:59:27.289Z,68.39
2023-02-19T11:02:31.942Z,65.90
2023-02-19T11:05:36.652Z,65.05
2023-02-19T11:08:46.852Z,64.38
2023-02-19T11:11:53.710Z,63.20
2023-02-19T11:14:56.782Z,62.15
2023-02-19T11:18:10.686Z,61.31
2023-02-19T11:21:33.594Z,60.51
2023-02-19T11:24:40.494Z,60.36
2023-02-19T11:28:07.275Z,60.53
2023-02-19T11:31:16.113Z,60.24
2023-02-19T11:34:21.364Z,59.39
2023-02-19T11:37:23.722Z,59.42
2023-02-19T11:40:53.364Z,58.05
2023-02-19T11:44:25.823Z,58.56
2023-02-19T11:47:49.612Z,58.38
2023-02-19T11:51:23.635Z,58.05
2023-02-19T11:54:42.669Z,57.27
2023-02-19T11:58:12.073Z,56.64
2023-02-19T12:01:42.391Z,56.10
2023-02-19T12:05:13.164Z,56.38
2023-02-19T12:08:38.415Z,55.86
2023-02-19T12:11:55.778Z,56.39
2023-02-19T12:15:35.581Z,56.02
2023-02-19T12:18:38.169Z,56.15
2023-02-19T12:21:56.046Z,55.95
2023-02-19T12:25:15.299Z,55.73
2023-02-19T12:28:23.729Z,55.18
2023-02-19T12:31:33.026Z,55.91
2023-02-19T12:34:49.421Z,55.92
2023-02-19T12:38:03.774Z,55.47
2023-02-19T12:41:41.670Z,55.11
2023-02-19T12:44:51.648Z,55.06
2023-02-19T12:48:28.125Z,54.76
2023-02-19T12:52:02.065Z,54.68
2023-02-19T12:55:40.553Z,58.83
2023-02-19T12:58:48.900Z,65.42
2023-02-19T13:02:00.170Z,67.66
2023-02-19T13:05:11.060Z,69.21
2023-02-19T13:08:16.095Z,70.26
2023-02-19T13:11:57.401Z,69.78
2023-02-19T13:15:21.082Z,70.66
2023-02-19T13:18:30.220Z,69.59
2023-02-19T13:21:54.808Z,68.40
2023-02-19T13:24:58.665Z,68.89
2023-02-19T13:28:34.401Z,69.70
2023-02-19T13:31:51.518Z,69.59
2023-02-19T13:35:38.017Z,68.23
2023-02-19T13:38:46.984Z,67.06
2023-02-19T13:41:50.738Z,66.70
2023-02-19T13:44:57.888Z,66.79
2023-02-19T13:48:14.554Z,68.38
2023-02-19T13:51:21.709Z,65.85
2023-02-19T13:54:29.634Z,69.34
2023-02-19T13:57:32.547Z,70.98
2023-02-19T14:00:52.200Z,73.16
2023-02-19T14:04:08.868Z,72.35
2023-02-19T14:07:11.238Z,74.80
2023-02-19T14:10:35.032Z,74.97
2023-02-19T14:13:52.360Z,73.22
2023-02-19T14:16:58.703Z,73.58
2023-02-19T14:20:35.935Z,73.00
2023-02-19T14:23:38.653Z,73.26
2023-02-19T14:26:41.797Z,71.82
2023-02-19T14:29:44.998Z,71.96
2023-02-19T14:32:54.562Z,71.87
2023-02-19T14:36:28.903Z,69.93
2023-02-19T14:39:35.200Z,69.10
2023-02-19T14:42:37.911Z,68.53
2023-02-19T14:45:44.938Z,68.01
2023-02-19T14:48:49.822Z,69.46
2023-02-19T14:52:01.231Z,69.45
2023-02-19T14:55:09.867Z,69.40
2023-02-19T14:58:17.536Z,70.37
2023-02-19T15:01:27.671Z,71.06
2023-02-19T15:04:36.543Z,70.64
2023-02-19T15:07:42.034Z,70.80
2023-02-19T15:10:44.956Z,71.72
2023-02-19T15:13:52.444Z,71.63
2023-02-19T15:17:00.678Z,71.26
2023-02-19T15:20:09.429Z,70.75
2023-02-19T15:23:21.034Z,70.57
2023-02-19T15:26:35.649Z,70.51
2023-02-19T15:29:46.008Z,70.93
2023-02-19T15:32:59.946Z,69.10
2023-02-19T15:36:06.646Z,69.22
2023-02-19T15:39:19.482Z,69.62
2023-02-19T15:42:28.470Z,68.69
2023-02-19T15:45:46.313Z,69.28
2023-02-19T15:48:54.497Z,68.83
2023-02-19T15:52:05.807Z,68.41
2023-02-19T15:55:36.610Z,68.72
2023-02-19T15:58:45.620Z,69.02
2023-02-19T16:01:48.391Z,68.53
2023-02-19T16:04:51.134Z,68.88
2023-02-19T16:08:08.631Z,69.25
2023-02-19T16:11:23.528Z,68.97
2023-02-19T16:14:34.918Z,69.35
2023-02-19T16:17:37.725Z,68.85
2023-02-19T16:20:40.430Z,69.42
2023-02-19T16:23:45.448Z,68.92
2023-02-19T16:26:47.932Z,69.32
2023-02-19T16:29:51.805Z,69.09
2023-02-19T16:33:39.414Z,69.53
2023-02-19T16:36:43.531Z,69.89
2023-02-19T16:39:45.947Z,70.61
2023-02-19T16:42:48.536Z,72.49
2023-02-19T16:45:51.008Z,75.26
2023-02-19T16:48:54.556Z,74.07
2023-02-19T16:51:59.833Z,74.54
2023-02-19T16:55:03.784Z,74.26
2023-02-19T16:58:06.251Z,74.99
2023-02-19T17:01:09.392Z,74.30
2023-02-19T17:04:15.291Z,73.85
2023-02-19T17:07:18.819Z,73.62
2023-02-19T17:10:26.417Z,74.07
2023-02-19T17:13:29.913Z,73.55
2023-02-19T17:16:40.286Z,73.78
2023-02-19T17:19:43.172Z,73.76
2023-02-19T17:22:45.546Z,72.68
2023-02-19T17:25:48.145Z,72.92
2023-02-19T17:28:51.080Z,71.87
2023-02-19T17:31:53.912Z,72.08
2023-02-19T17:34:56.375Z,72.31
2023-02-19T17:37:59.074Z,70.77
2023-02-19T17:41:01.398Z,69.97
2023-02-19T17:44:04.161Z,70.45
2023-02-19T17:47:07.678Z,69.98
2023-02-19T17:50:15.256Z,69.44
2023-02-19T17:53:18.371Z,69.73
2023-02-19T17:56:25.685Z,69.00
2023-02-19T17:59:28.089Z,69.80
2023-02-19T18:02:30.923Z,69.77
2023-02-19T18:05:33.627Z,69.09
2023-02-19T18:08:36.052Z,69.58
2023-02-19T18:11:38.662Z,69.27
2023-02-19T18:14:41.103Z,69.05
2023-02-19T18:17:44.153Z,68.94
2023-02-19T18:20:46.511Z,68.63
2023-02-19T18:23:49.163Z,69.68
2023-02-19T18:26:51.434Z,69.37
2023-02-19T18:29:56.189Z,68.75
2023-02-19T18:32:58.549Z,69.36
2023-02-19T18:36:01.415Z,69.81
2023-02-19T18:39:03.813Z,69.25
2023-02-19T18:42:06.545Z,69.70
2023-02-19T18:45:09.438Z,69.32
2023-02-19T18:48:12.671Z,69.78
2023-02-19T18:51:15.016Z,69.63
2023-02-19T18:54:17.696Z,69.86
2023-02-19T18:57:22.018Z,69.69
2023-02-19T19:00:26.583Z,70.25
2023-02-19T19:03:30.174Z,69.93
2023-02-19T19:06:33.348Z,70.64
2023-02-19T19:09:36.031Z,70.26
2023-02-19T19:12:38.701Z,70.66
2023-02-19T19:15:41.514Z,70.79
2023-02-19T19:18:44.385Z,71.42
2023-02-19T19:21:54.549Z,70.76
2023-02-19T19:24:57.173Z,71.83
2023-02-19T19:27:59.652Z,71.65
2023-02-19T19:31:02.869Z,71.85
2023-02-19T19:34:05.474Z,72.35
2023-02-19T19:37:08.234Z,72.81
2023-02-19T19:40:11.202Z,73.12
2023-02-19T19:43:13.856Z,72.99
2023-02-19T19:46:19.903Z,73.11
2023-02-19T19:49:23.391Z,72.86
2023-02-19T19:52:25.721Z,73.20
2023-02-19T19:55:28.376Z,73.49
2023-02-19T19:58:30.757Z,73.32
2023-02-19T20:01:33.405Z,72.69
2023-02-19T20:04:36.046Z,72.25
2023-02-19T20:07:41.602Z,72.30
2023-02-19T20:10:45.517Z,71.12
2023-02-19T20:13:47.861Z,70.76
2023-02-19T20:16:50.695Z,70.54
2023-02-19T20:19:53.569Z,70.43
2023-02-19T20:22:56.233Z,70.54
2023-02-19T20:25:58.641Z,70.41
2023-02-19T20:29:01.339Z,70.42
2023-02-19T20:32:04.100Z,70.69
2023-02-19T20:35:07.255Z,70.60
2023-02-19T20:38:09.581Z,71.02
2023-02-19T20:41:12.668Z,71.91
2023-02-19T20:44:15.889Z,71.00
2023-02-19T20:47:18.657Z,70.46
2023-02-19T20:50:21.713Z,70.76
2023-02-19T20:53:24.662Z,70.59
2023-02-19T20:56:26.993Z,70.31
2023-02-19T20:59:35.093Z,68.73
2023-02-19T21:02:37.623Z,68.18
2023-02-19T21:05:40.761Z,68.32
2023-02-19T21:08:43.132Z,67.39
2023-02-19T21:11:46.047Z,67.11
2023-02-19T21:14:49.338Z,67.82
2023-02-19T21:17:52.095Z,67.55
2023-02-19T21:20:54.535Z,68.10
2023-02-19T21:23:59.232Z,68.66
2023-02-19T21:27:01.673Z,68.93
2023-02-19T21:30:07.922Z,69.45
2023-02-19T21:33:10.329Z,68.90
2023-02-19T21:36:13.294Z,69.00
2023-02-19T21:39:18.676Z,69.31
2023-02-19T21:42:21.374Z,69.51
2023-02-19T21:45:23.995Z,69.62
2023-02-19T21:48:26.794Z,68.42
2023-02-19T21:51:35.237Z,67.04
2023-02-19T21:54:38.000Z,66.06
2023-02-19T21:57:40.468Z,64.88
2023-02-19T22:00:43.070Z,63.69
2023-02-19T22:03:45.686Z,62.73
2023-02-19T22:06:48.008Z,61.59
2023-02-19T22:09:51.816Z,60.81
2023-02-19T22:12:54.219Z,60.43
2023-02-19T22:15:56.902Z,59.96
2023-02-19T22:19:00.242Z,58.82
2023-02-19T22:22:03.202Z,58.02
2023-02-19T22:25:05.785Z,57.78
2023-02-19T22:28:08.460Z,57.66
2023-02-19T22:31:10.833Z,56.80
2023-02-19T22:34:15.548Z,56.66
2023-02-19T22:37:18.010Z,57.96
2023-02-19T22:40:20.761Z,57.42
2023-02-19T22:43:23.066Z,57.29
2023-02-19T22:46:28.640Z,56.63
2023-02-19T22:49:30.977Z,56.50
2023-02-19T22:52:33.566Z,55.91
2023-02-19T22:55:35.926Z,56.05
2023-02-19T22:58:38.577Z,56.14
2023-02-19T23:01:41.703Z,56.19
2023-02-19T23:04:44.450Z,56.10
2023-02-19T23:07:46.797Z,56.68
2023-02-19T23:10:50.199Z,56.54
2023-02-19T23:13:52.528Z,56.75
2023-02-19T23:16:55.207Z,56.89
2023-02-19T23:19:57.543Z,57.14
2023-02-19T23:23:00.260Z,57.12
2023-02-19T23:26:03.840Z,57.27
2023-02-19T23:29:06.441Z,57.10
2023-02-19T23:32:08.908Z,56.62
2023-02-19T23:35:11.612Z,55.89
2023-02-19T23:38:13.947Z,55.85
2023-02-19T23:41:17.753Z,56.36
2023-02-19T23:44:21.844Z,55.51
2023-02-19T23:47:26.561Z,55.80
2023-02-19T23:50:28.960Z,54.75
2023-02-19T23:53:31.549Z,54.87
2023-02-19T23:56:34.432Z,55.15
2023-02-19T23:59:37.126Z,54.50
